B06 weather

Basin Harbor Airport
Vergennes, Vermont, United States

Public forecast

Using degrees Fahrenheit for public forecast. Weather courtesy of forecast.io.

Closest aviation weather report (METAR) to Basin Harbor Airport

Closest report is Burlington International Airport, 18.6 nm (34.4 km) NNE. Retrieved 2019/12/06 11:54 UTC (55 minutes ago):

KBTV 061154Z 13003KT 10SM BKN038 OVC048 M04/M08 A3002 RMK AO2 SLP169 4/003 70004 T10391083 11028 21039 56004

Closest aviation forecast (TAF) to Basin Harbor Airport

Closest forecast is Burlington International Airport, 18.6 nm (34.4 km) NNE. Retrieved 2019/12/06 12:36 UTC (13 minutes ago):

TAF KBTV 061133Z 0612/0712 23005KT P6SM -SN OVC035 FM061400 21005KT 2SM -SN BR OVC028 FM061600 20005KT 1 1/2SM -SN BR OVC023 FM062100 35005KT 3SM -SN BR OVC018 FM070000 35005KT P6SM VCSH OVC015 FM070200 32005KT P6SM OVC022